LNG Aquarius — V7BW6 — position and weather

sailwx.info

Track history (hours):
 
Tides and Currents Weather Stations Pressure Air Temp Water Temp Dewpoint Dewpoint Depression Visibility Wind Speed Wind Dir Waves Ship Positions

LNG Aquarius

Last reported at 2017-Jun-22 11:03 UTC. Time now 2017-Jun-27 03:49 UTC.
Position N 01°17' E 103°59'.

Type: Tanker. MMSI: 538001385.

Date/timePositionNaut miles runAvg speedWind from/ knotsBaromVisibWave heightAir tempDewpointWater temp
2017-Jun-22 11:03N 01°17' E 103°59'0 0.2
2017-Jun-22 11:01N 01°17' E 103°59'0 0.0
2017-Jun-22 10:16N 01°17' E 103°59'1 0.1
2017-Jun-21 22:09N 01°16' E 103°60'3 1.8
2017-Jun-21 20:33N 01°14' E 103°58'0 7.8
2017-Jun-21 20:30N 01°14' E 103°58'4 7.7
2017-Jun-21 20:00N 01°12' E 103°54'5 9.9
2017-Jun-21 19:30N 01°10' E 103°50'5 9.9
2017-Jun-21 19:00N 01°08' E 103°46'511.0
2017-Jun-21 18:30N 01°04' E 103°42'5 9.9
2017-Jun-21 17:57N 01°04' E 103°36'511.3
2017-Jun-21 17:29N 01°07' E 103°32'  
Track history (hours):
 
Tides and Currents Weather Stations Pressure Air Temp Water Temp Dewpoint Dewpoint Depression Visibility Wind Speed Wind Dir Waves Ship Positions

LNG Aquarius

Last reported at 2017-Jun-22 11:03 UTC. Time now 2017-Jun-27 03:49 UTC.
Position N 01°17' E 103°59'.

Type: Tanker. MMSI: 538001385.

Date/timePositionNaut miles runAvg speedWind from/ knotsBaromVisibWave heightAir tempDewpointWater temp
2017-Jun-22 11:03N 01°17' E 103°59'0 0.2
2017-Jun-22 11:01N 01°17' E 103°59'0 0.0
2017-Jun-22 10:16N 01°17' E 103°59'1 0.1
2017-Jun-21 22:09N 01°16' E 103°60'3 1.8
2017-Jun-21 20:33N 01°14' E 103°58'0 7.8
2017-Jun-21 20:30N 01°14' E 103°58'4 7.7
2017-Jun-21 20:00N 01°12' E 103°54'5 9.9
2017-Jun-21 19:30N 01°10' E 103°50'5 9.9
2017-Jun-21 19:00N 01°08' E 103°46'511.0
2017-Jun-21 18:30N 01°04' E 103°42'5 9.9
2017-Jun-21 17:57N 01°04' E 103°36'511.3
2017-Jun-21 17:29N 01°07' E 103°32'  

Dump ship's entire track history